Time,TemperatureF,DewpointF,PressureIn,WindDirection,WindDirectionDegrees,WindSpeedMPH,WindSpeedGustMPH,Humidity,HourlyPrecipIn,Conditions,Clouds,dailyrainin,SoftwareType,DateUTC
2013-02-23 00:00:00,17.0,3.0,-100.00,WSW,249,8.0,9.0,52,0.00,,,0.01,,2013-02-23 07:00:00,
2013-02-23 00:41:00,17.0,3.0,-100.00,WSW,249,8.0,9.0,52,0.00,,,0.01,,2013-02-23 07:41:00,
2013-02-23 00:52:00,17.0,3.0,-100.00,WSW,249,8.0,9.0,52,0.00,,,0.01,,2013-02-23 07:52:00,
2013-02-23 01:00:00,17.0,3.0,-100.00,SW,228,4.0,4.0,54,0.00,,,0.01,,2013-02-23 08:00:00,
2013-02-23 01:41:00,17.0,3.0,-100.00,SW,228,4.0,4.0,54,0.00,,,0.01,,2013-02-23 08:41:00,
2013-02-23 01:52:00,17.0,3.0,-100.00,SW,228,4.0,4.0,54,0.00,,,0.01,,2013-02-23 08:52:00,
2013-02-23 02:00:00,21.0,6.0,-100.00,North,349,2.0,3.0,53,0.00,,,0.01,,2013-02-23 09:00:00,
2013-02-23 02:41:00,21.0,6.0,-100.00,North,349,2.0,3.0,53,0.00,,,0.01,,2013-02-23 09:41:00,
2013-02-23 02:52:00,21.0,6.0,-100.00,North,349,2.0,3.0,53,0.00,,,0.01,,2013-02-23 09:52:00,
2013-02-23 03:00:00,23.0,5.0,-100.00,SSE,163,3.0,5.0,47,0.00,,,0.01,,2013-02-23 10:00:00,
2013-02-23 03:41:00,23.0,5.0,-100.00,SSE,163,3.0,5.0,47,0.00,,,0.01,,2013-02-23 10:41:00,
2013-02-23 03:52:00,23.0,5.0,-100.00,SSE,163,3.0,5.0,47,0.00,,,0.01,,2013-02-23 10:52:00,
2013-02-23 04:00:00,21.0,6.0,-100.00,WSW,247,0.0,3.0,50,0.00,,,0.01,,2013-02-23 11:00:00,
2013-02-23 04:41:00,21.0,6.0,-100.00,WSW,247,0.0,3.0,50,0.00,,,0.01,,2013-02-23 11:41:00,
2013-02-23 04:52:00,21.0,6.0,-100.00,WSW,247,0.0,3.0,50,0.00,,,0.01,,2013-02-23 11:52:00,
2013-02-23 05:00:00,21.0,5.0,-100.00,NNW,338,5.0,6.0,49,0.00,,,0.01,,2013-02-23 12:00:00,
2013-02-23 05:42:00,21.0,5.0,-100.00,NNW,338,5.0,6.0,49,0.00,,,0.01,,2013-02-23 12:42:00,
2013-02-23 05:52:00,21.0,5.0,-100.00,NNW,338,5.0,6.0,49,0.00,,,0.01,,2013-02-23 12:52:00,
2013-02-23 06:00:00,21.0,6.0,-100.00,NNE,26,2.0,5.0,52,0.00,,,0.01,,2013-02-23 13:00:00,
2013-02-23 06:42:00,21.0,6.0,-100.00,NNE,26,2.0,5.0,52,0.00,,,0.01,,2013-02-23 13:42:00,
2013-02-23 06:52:00,21.0,6.0,-100.00,NNE,26,2.0,5.0,52,0.00,,,0.01,,2013-02-23 13:52:00,
2013-02-23 07:00:00,23.0,7.0,-100.00,WSW,248,5.0,6.0,51,0.00,,,0.01,,2013-02-23 14:00:00,
2013-02-23 07:41:00,23.0,7.0,-100.00,WSW,248,5.0,6.0,51,0.00,,,0.01,,2013-02-23 14:41:00,
2013-02-23 07:52:00,23.0,7.0,-100.00,WSW,248,5.0,6.0,51,0.00,,,0.01,,2013-02-23 14:52:00,
2013-02-23 08:00:00,22.0,9.0,-100.00,WSW,251,3.0,3.0,57,0.00,,,0.01,,2013-02-23 15:00:00,
2013-02-23 08:41:00,22.0,9.0,-100.00,WSW,251,3.0,3.0,57,0.00,,,0.01,,2013-02-23 15:41:00,
2013-02-23 08:52:00,22.0,9.0,-100.00,WSW,251,3.0,3.0,57,0.00,,,0.01,,2013-02-23 15:52:00,
2013-02-23 09:00:00,26.0,7.0,-100.00,SSW,211,2.0,3.0,44,0.00,,,0.01,,2013-02-23 16:00:00,
2013-02-23 09:42:00,26.0,7.0,-100.00,SSW,211,2.0,3.0,44,0.00,,,0.01,,2013-02-23 16:42:00,
2013-02-23 09:52:00,26.0,7.0,-100.00,SSW,211,2.0,3.0,44,0.00,,,0.01,,2013-02-23 16:52:00,
2013-02-23 10:00:00,30.0,8.0,-100.00,WSW,248,0.0,2.0,40,0.00,,,0.01,,2013-02-23 17:00:00,
2013-02-23 10:41:00,30.0,8.0,-100.00,WSW,248,0.0,2.0,40,0.00,,,0.01,,2013-02-23 17:41:00,
2013-02-23 10:52:00,30.0,8.0,-100.00,WSW,248,0.0,2.0,40,0.00,,,0.01,,2013-02-23 17:52:00,
2013-02-23 11:00:00,29.0,12.0,-100.00,ENE,71,10.0,14.0,47,0.00,,,0.00,,2013-02-23 18:00:00,
2013-02-23 11:41:00,29.0,12.0,-100.00,ENE,71,10.0,14.0,47,0.00,,,0.00,,2013-02-23 18:41:00,
2013-02-23 11:52:00,29.0,12.0,-100.00,ENE,71,10.0,14.0,47,0.00,,,0.00,,2013-02-23 18:52:00,
2013-02-23 12:00:00,29.0,10.0,-100.00,ESE,119,4.0,7.0,45,0.00,,,0.00,,2013-02-23 19:00:00,
2013-02-23 12:41:00,29.0,10.0,-100.00,ESE,119,4.0,7.0,45,0.00,,,0.00,,2013-02-23 19:41:00,
2013-02-23 12:52:00,29.0,10.0,-100.00,ESE,119,4.0,7.0,45,0.00,,,0.00,,2013-02-23 19:52:00,
2013-02-23 13:00:00,29.0,11.0,-100.00,ENE,70,10.0,12.0,47,0.00,,,0.00,,2013-02-23 20:00:00,
2013-02-23 13:41:00,29.0,11.0,-100.00,ENE,70,10.0,12.0,47,0.00,,,0.00,,2013-02-23 20:41:00,
2013-02-23 13:52:00,29.0,11.0,-100.00,ENE,70,10.0,12.0,47,0.00,,,0.00,,2013-02-23 20:52:00,
2013-02-23 14:00:00,29.0,11.0,-100.00,ENE,67,9.0,12.0,47,0.00,,,0.00,,2013-02-23 21:00:00,
2013-02-23 14:41:00,29.0,11.0,-100.00,ENE,67,9.0,12.0,47,0.00,,,0.00,,2013-02-23 21:41:00,
2013-02-23 14:52:00,29.0,11.0,-100.00,ENE,67,9.0,12.0,47,0.00,,,0.00,,2013-02-23 21:52:00,
2013-02-23 15:00:00,28.0,11.0,-100.00,East,96,2.0,5.0,49,0.00,,,0.00,,2013-02-23 22:00:00,
2013-02-23 15:41:00,28.0,11.0,-100.00,East,96,2.0,5.0,49,0.00,,,0.00,,2013-02-23 22:41:00,
2013-02-23 15:52:00,28.0,11.0,-100.00,East,96,2.0,5.0,49,0.00,,,0.00,,2013-02-23 22:52:00,
2013-02-23 16:00:00,26.0,17.0,-100.00,ENE,60,4.0,5.0,68,0.00,,,0.00,,2013-02-23 23:00:00,
2013-02-23 16:41:00,26.0,17.0,-100.00,ENE,60,4.0,5.0,68,0.00,,,0.00,,2013-02-23 23:41:00,
2013-02-23 16:52:00,26.0,17.0,-100.00,ENE,60,4.0,5.0,68,0.00,,,0.00,,2013-02-23 23:52:00,
2013-02-23 17:00:00,27.0,17.0,-100.00,East,82,0.0,3.0,65,0.00,,,0.00,,2013-02-24 00:00:00,
2013-02-23 17:42:00,27.0,17.0,-100.00,East,82,0.0,3.0,65,0.00,,,0.00,,2013-02-24 00:42:00,
2013-02-23 17:52:00,27.0,17.0,-100.00,East,82,0.0,3.0,65,0.00,,,0.00,,2013-02-24 00:52:00,
2013-02-23 18:00:00,24.0,21.0,-100.00,East,98,1.0,3.0,88,0.00,,,0.00,,2013-02-24 01:00:00,
2013-02-23 18:41:00,24.0,21.0,-100.00,East,98,1.0,3.0,88,0.00,,,0.00,,2013-02-24 01:41:00,
2013-02-23 18:52:00,24.0,21.0,-100.00,East,98,1.0,3.0,88,0.00,,,0.00,,2013-02-24 01:52:00,
2013-02-23 19:00:00,23.0,21.0,-100.00,ENE,67,4.0,5.0,92,0.00,,,0.00,,2013-02-24 02:00:00,
2013-02-23 19:41:00,23.0,21.0,-100.00,ENE,67,4.0,5.0,92,0.00,,,0.00,,2013-02-24 02:41:00,
2013-02-23 19:52:00,23.0,21.0,-100.00,ENE,67,4.0,5.0,92,0.00,,,0.00,,2013-02-24 02:52:00,
2013-02-23 20:00:00,22.0,20.0,-100.00,East,79,7.0,10.0,92,0.00,,,0.00,,2013-02-24 03:00:00,
2013-02-23 20:42:00,22.0,20.0,-100.00,East,79,7.0,10.0,92,0.00,,,0.00,,2013-02-24 03:42:00,
2013-02-23 20:52:00,22.0,20.0,-100.00,East,79,7.0,10.0,92,0.00,,,0.00,,2013-02-24 03:52:00,
2013-02-23 21:00:00,20.0,17.0,-100.00,ENE,74,8.0,14.0,91,0.00,,,0.00,,2013-02-24 04:00:00,
2013-02-23 21:41:00,20.0,17.0,-100.00,ENE,74,8.0,14.0,91,0.00,,,0.00,,2013-02-24 04:41:00,
2013-02-23 21:52:00,20.0,17.0,-100.00,ENE,74,8.0,14.0,91,0.00,,,0.00,,2013-02-24 04:52:00,
2013-02-23 22:00:00,19.0,16.0,-100.00,East,83,7.0,10.0,88,0.00,,,0.00,,2013-02-24 05:00:00,
2013-02-23 22:42:00,19.0,16.0,-100.00,East,83,7.0,10.0,88,0.00,,,0.00,,2013-02-24 05:42:00,
2013-02-23 22:52:00,19.0,16.0,-100.00,East,83,7.0,10.0,88,0.00,,,0.00,,2013-02-24 05:52:00,
2013-02-23 23:00:00,18.0,15.0,-100.00,East,98,5.0,10.0,87,0.00,,,0.00,,2013-02-24 06:00:00,
2013-02-23 23:31:00,18.0,15.0,-100.00,East,98,5.0,10.0,87,0.00,,,0.00,,2013-02-24 06:31:00,
2013-02-23 23:41:00,18.0,15.0,-100.00,East,98,5.0,10.0,87,0.00,,,0.00,,2013-02-24 06:41:00,
2013-02-23 23:52:00,18.0,15.0,-100.00,East,98,5.0,10.0,87,0.00,,,0.00,,2013-02-24 06:52:00,